Ceres, Virginia
Current Conditions -  °F | °C
As of 6:15 PM on Friday 19 Dec 2014 (Local Time) from KMKJ Reporting Station
Clear Clear  
Wind Chill: 33°   Ceiling: Unl
Heat Index: 37°   Visibility: 10mi
Dew Point: 23°   Wind: 5mph
Humidity: 57%   Direction: 280°W
Pressure: 30.16"   Gusts: NA
Location:  37.02°N, 81.34°W
Report Text: KMKJ 192315Z AUTO 28004KT 10SM CLR 03/M05 A3016 RMK AO2 T00261051
Loading
Personal Weather Stations






























Interactive Weather Map New forecast layout! Learn more

10-Day Weather Forecast

Advertisements
Track Severe Weather on mobile